sensor_id;sensor_type;location;lat;lon;timestamp;P1;durP1;ratioP1;P2;durP2;ratioP2
45354;SDS011;31091;48.758;9.150;2022-12-18T00:02:34;54.03;;;24.58;;
45354;SDS011;31091;48.758;9.150;2022-12-18T00:05:19;50.70;;;24.95;;
45354;SDS011;31091;48.758;9.150;2022-12-18T00:08:04;48.95;;;23.42;;
45354;SDS011;31091;48.758;9.150;2022-12-18T00:10:50;48.92;;;24.60;;
45354;SDS011;31091;48.758;9.150;2022-12-18T00:13:35;51.08;;;24.23;;
45354;SDS011;31091;48.758;9.150;2022-12-18T00:16:21;51.22;;;22.58;;
45354;SDS011;31091;48.758;9.150;2022-12-18T00:19:06;45.92;;;21.90;;
45354;SDS011;31091;48.758;9.150;2022-12-18T00:21:52;48.22;;;23.20;;
45354;SDS011;31091;48.758;9.150;2022-12-18T00:24:37;47.10;;;22.38;;
45354;SDS011;31091;48.758;9.150;2022-12-18T00:27:22;45.20;;;22.70;;
45354;SDS011;31091;48.758;9.150;2022-12-18T00:30:08;42.25;;;22.48;;
45354;SDS011;31091;48.758;9.150;2022-12-18T00:32:53;48.53;;;20.52;;
45354;SDS011;31091;48.758;9.150;2022-12-18T00:35:38;53.17;;;23.00;;
45354;SDS011;31091;48.758;9.150;2022-12-18T00:38:24;51.70;;;23.10;;
45354;SDS011;31091;48.758;9.150;2022-12-18T00:41:09;50.90;;;22.95;;
45354;SDS011;31091;48.758;9.150;2022-12-18T00:43:55;52.90;;;24.40;;
45354;SDS011;31091;48.758;9.150;2022-12-18T00:46:40;49.60;;;25.25;;
45354;SDS011;31091;48.758;9.150;2022-12-18T00:49:26;46.92;;;24.45;;
45354;SDS011;31091;48.758;9.150;2022-12-18T00:52:11;75.57;;;35.13;;
45354;SDS011;31091;48.758;9.150;2022-12-18T00:54:57;52.47;;;23.90;;
45354;SDS011;31091;48.758;9.150;2022-12-18T00:57:42;51.42;;;22.27;;
45354;SDS011;31091;48.758;9.150;2022-12-18T01:00:27;56.10;;;22.98;;
45354;SDS011;31091;48.758;9.150;2022-12-18T01:03:13;52.25;;;22.58;;
45354;SDS011;31091;48.758;9.150;2022-12-18T01:05:58;51.83;;;22.42;;
45354;SDS011;31091;48.758;9.150;2022-12-18T01:08:43;45.83;;;21.45;;
45354;SDS011;31091;48.758;9.150;2022-12-18T01:11:29;46.38;;;20.95;;
45354;SDS011;31091;48.758;9.150;2022-12-18T01:14:14;43.10;;;20.63;;
45354;SDS011;31091;48.758;9.150;2022-12-18T01:16:59;49.05;;;22.95;;
45354;SDS011;31091;48.758;9.150;2022-12-18T01:19:47;44.30;;;21.65;;
45354;SDS011;31091;48.758;9.150;2022-12-18T01:22:32;49.60;;;23.63;;
45354;SDS011;31091;48.758;9.150;2022-12-18T01:25:17;45.65;;;21.52;;
45354;SDS011;31091;48.758;9.150;2022-12-18T01:28:03;41.70;;;20.15;;
45354;SDS011;31091;48.758;9.150;2022-12-18T01:30:48;39.72;;;20.40;;
45354;SDS011;31091;48.758;9.150;2022-12-18T01:33:33;46.95;;;20.63;;
45354;SDS011;31091;48.758;9.150;2022-12-18T01:36:21;45.08;;;22.52;;
45354;SDS011;31091;48.758;9.150;2022-12-18T01:39:07;49.95;;;22.35;;
45354;SDS011;31091;48.758;9.150;2022-12-18T01:41:53;45.95;;;21.20;;
45354;SDS011;31091;48.758;9.150;2022-12-18T01:44:53;53.03;;;25.42;;
45354;SDS011;31091;48.758;9.150;2022-12-18T01:50:28;45.28;;;20.98;;
45354;SDS011;31091;48.758;9.150;2022-12-18T01:53:19;44.77;;;21.90;;
45354;SDS011;31091;48.758;9.150;2022-12-18T01:56:06;47.63;;;22.55;;
45354;SDS011;31091;48.758;9.150;2022-12-18T01:58:57;43.72;;;21.63;;
45354;SDS011;31091;48.758;9.150;2022-12-18T02:01:43;42.63;;;21.08;;
45354;SDS011;31091;48.758;9.150;2022-12-18T02:04:28;47.20;;;23.25;;
45354;SDS011;31091;48.758;9.150;2022-12-18T02:10:29;51.53;;;23.35;;
45354;SDS011;31091;48.758;9.150;2022-12-18T02:13:20;37.60;;;16.98;;
45354;SDS011;31091;48.758;9.150;2022-12-18T02:18:54;41.55;;;20.33;;
45354;SDS011;31091;48.758;9.150;2022-12-18T02:24:48;52.10;;;21.10;;
45354;SDS011;31091;48.758;9.150;2022-12-18T02:27:34;44.92;;;20.92;;
45354;SDS011;31091;48.758;9.150;2022-12-18T02:30:21;41.60;;;20.38;;
45354;SDS011;31091;48.758;9.150;2022-12-18T02:33:07;41.83;;;20.83;;
45354;SDS011;31091;48.758;9.150;2022-12-18T02:35:54;37.33;;;19.88;;
45354;SDS011;31091;48.758;9.150;2022-12-18T02:38:40;48.38;;;20.55;;
45354;SDS011;31091;48.758;9.150;2022-12-18T02:41:26;46.00;;;23.15;;
45354;SDS011;31091;48.758;9.150;2022-12-18T02:44:12;35.65;;;19.55;;
45354;SDS011;31091;48.758;9.150;2022-12-18T02:46:58;44.10;;;19.15;;
45354;SDS011;31091;48.758;9.150;2022-12-18T02:52:51;44.50;;;21.05;;
45354;SDS011;31091;48.758;9.150;2022-12-18T03:01:49;41.30;;;19.23;;
45354;SDS011;31091;48.758;9.150;2022-12-18T03:07:57;39.28;;;19.30;;
45354;SDS011;31091;48.758;9.150;2022-12-18T03:10:45;41.30;;;20.17;;
45354;SDS011;31091;48.758;9.150;2022-12-18T03:13:48;48.03;;;20.85;;
45354;SDS011;31091;48.758;9.150;2022-12-18T03:16:35;41.33;;;18.75;;
45354;SDS011;31091;48.758;9.150;2022-12-18T03:19:21;40.90;;;18.55;;
45354;SDS011;31091;48.758;9.150;2022-12-18T03:22:07;40.22;;;19.15;;
45354;SDS011;31091;48.758;9.150;2022-12-18T03:24:53;37.60;;;20.27;;
45354;SDS011;31091;48.758;9.150;2022-12-18T03:27:40;41.72;;;21.17;;
45354;SDS011;31091;48.758;9.150;2022-12-18T03:30:29;43.42;;;21.08;;
45354;SDS011;31091;48.758;9.150;2022-12-18T03:33:16;41.33;;;18.83;;
45354;SDS011;31091;48.758;9.150;2022-12-18T03:36:04;40.67;;;21.08;;
45354;SDS011;31091;48.758;9.150;2022-12-18T03:38:49;43.30;;;21.55;;
45354;SDS011;31091;48.758;9.150;2022-12-18T03:41:43;50.92;;;22.83;;
45354;SDS011;31091;48.758;9.150;2022-12-18T03:44:32;37.40;;;18.55;;
45354;SDS011;31091;48.758;9.150;2022-12-18T03:47:28;40.97;;;21.52;;
45354;SDS011;31091;48.758;9.150;2022-12-18T03:50:16;46.45;;;20.60;;
45354;SDS011;31091;48.758;9.150;2022-12-18T03:53:14;47.92;;;20.63;;
45354;SDS011;31091;48.758;9.150;2022-12-18T03:56:03;38.75;;;19.38;;
45354;SDS011;31091;48.758;9.150;2022-12-18T03:58:49;46.10;;;21.35;;
45354;SDS011;31091;48.758;9.150;2022-12-18T04:01:38;48.17;;;21.60;;
45354;SDS011;31091;48.758;9.150;2022-12-18T04:04:24;44.03;;;18.38;;
45354;SDS011;31091;48.758;9.150;2022-12-18T04:07:10;38.13;;;18.95;;
45354;SDS011;31091;48.758;9.150;2022-12-18T04:09:56;44.85;;;20.17;;
45354;SDS011;31091;48.758;9.150;2022-12-18T04:12:43;42.03;;;19.02;;
45354;SDS011;31091;48.758;9.150;2022-12-18T04:15:29;40.90;;;19.83;;
45354;SDS011;31091;48.758;9.150;2022-12-18T04:18:14;39.28;;;18.73;;
45354;SDS011;31091;48.758;9.150;2022-12-18T04:20:59;38.70;;;19.38;;
45354;SDS011;31091;48.758;9.150;2022-12-18T04:23:45;42.67;;;19.08;;
45354;SDS011;31091;48.758;9.150;2022-12-18T04:26:30;47.42;;;18.30;;
45354;SDS011;31091;48.758;9.150;2022-12-18T04:29:15;43.80;;;19.33;;
45354;SDS011;31091;48.758;9.150;2022-12-18T04:32:00;37.92;;;17.90;;
45354;SDS011;31091;48.758;9.150;2022-12-18T04:34:46;41.03;;;17.73;;
45354;SDS011;31091;48.758;9.150;2022-12-18T04:37:32;40.25;;;17.88;;
45354;SDS011;31091;48.758;9.150;2022-12-18T04:40:18;42.42;;;20.73;;
45354;SDS011;31091;48.758;9.150;2022-12-18T04:43:03;43.13;;;19.23;;
45354;SDS011;31091;48.758;9.150;2022-12-18T04:45:48;36.40;;;18.63;;
45354;SDS011;31091;48.758;9.150;2022-12-18T04:48:34;38.63;;;17.58;;
45354;SDS011;31091;48.758;9.150;2022-12-18T04:51:19;40.40;;;18.25;;
45354;SDS011;31091;48.758;9.150;2022-12-18T04:54:05;37.58;;;19.33;;
45354;SDS011;31091;48.758;9.150;2022-12-18T04:56:50;36.58;;;18.17;;
45354;SDS011;31091;48.758;9.150;2022-12-18T04:59:35;31.35;;;16.35;;
45354;SDS011;31091;48.758;9.150;2022-12-18T05:02:20;37.65;;;18.23;;
45354;SDS011;31091;48.758;9.150;2022-12-18T05:05:06;33.42;;;16.80;;
45354;SDS011;31091;48.758;9.150;2022-12-18T05:07:51;36.83;;;18.27;;
45354;SDS011;31091;48.758;9.150;2022-12-18T05:10:37;29.92;;;14.00;;
45354;SDS011;31091;48.758;9.150;2022-12-18T05:13:22;39.25;;;18.15;;
45354;SDS011;31091;48.758;9.150;2022-12-18T05:16:07;33.55;;;16.98;;
45354;SDS011;31091;48.758;9.150;2022-12-18T05:18:53;36.78;;;16.80;;
45354;SDS011;31091;48.758;9.150;2022-12-18T05:21:38;35.08;;;17.50;;
45354;SDS011;31091;48.758;9.150;2022-12-18T05:24:23;35.00;;;16.05;;
45354;SDS011;31091;48.758;9.150;2022-12-18T05:27:09;35.75;;;16.58;;
45354;SDS011;31091;48.758;9.150;2022-12-18T05:29:54;38.00;;;16.48;;
45354;SDS011;31091;48.758;9.150;2022-12-18T05:32:39;33.58;;;16.27;;
45354;SDS011;31091;48.758;9.150;2022-12-18T05:35:26;31.58;;;15.45;;
45354;SDS011;31091;48.758;9.150;2022-12-18T05:38:11;35.92;;;16.83;;
45354;SDS011;31091;48.758;9.150;2022-12-18T05:40:57;31.38;;;16.77;;
45354;SDS011;31091;48.758;9.150;2022-12-18T05:43:42;33.85;;;15.68;;
45354;SDS011;31091;48.758;9.150;2022-12-18T05:46:27;32.15;;;16.00;;
45354;SDS011;31091;48.758;9.150;2022-12-18T05:49:13;35.60;;;17.13;;
45354;SDS011;31091;48.758;9.150;2022-12-18T05:51:58;37.72;;;16.75;;
45354;SDS011;31091;48.758;9.150;2022-12-18T05:54:43;34.70;;;16.25;;
45354;SDS011;31091;48.758;9.150;2022-12-18T05:57:28;36.92;;;17.10;;
45354;SDS011;31091;48.758;9.150;2022-12-18T06:00:14;34.38;;;16.02;;
45354;SDS011;31091;48.758;9.150;2022-12-18T06:02:59;36.17;;;17.17;;
45354;SDS011;31091;48.758;9.150;2022-12-18T06:05:44;33.42;;;17.75;;
45354;SDS011;31091;48.758;9.150;2022-12-18T06:08:30;32.70;;;14.93;;
45354;SDS011;31091;48.758;9.150;2022-12-18T06:11:19;31.80;;;15.07;;
45354;SDS011;31091;48.758;9.150;2022-12-18T06:14:05;34.95;;;15.25;;
45354;SDS011;31091;48.758;9.150;2022-12-18T06:16:51;28.40;;;15.45;;
45354;SDS011;31091;48.758;9.150;2022-12-18T06:19:37;33.03;;;14.95;;
45354;SDS011;31091;48.758;9.150;2022-12-18T06:22:22;36.60;;;18.02;;
45354;SDS011;31091;48.758;9.150;2022-12-18T06:25:07;33.10;;;17.35;;
45354;SDS011;31091;48.758;9.150;2022-12-18T06:27:53;34.28;;;16.08;;
45354;SDS011;31091;48.758;9.150;2022-12-18T06:30:38;33.33;;;16.88;;
45354;SDS011;31091;48.758;9.150;2022-12-18T06:33:25;30.77;;;14.45;;
45354;SDS011;31091;48.758;9.150;2022-12-18T06:36:11;30.88;;;14.50;;
45354;SDS011;31091;48.758;9.150;2022-12-18T06:38:57;32.92;;;16.30;;
45354;SDS011;31091;48.758;9.150;2022-12-18T06:41:42;36.15;;;16.92;;
45354;SDS011;31091;48.758;9.150;2022-12-18T06:44:27;29.92;;;15.48;;
45354;SDS011;31091;48.758;9.150;2022-12-18T06:47:13;30.30;;;14.98;;
45354;SDS011;31091;48.758;9.150;2022-12-18T06:49:58;37.15;;;15.77;;
45354;SDS011;31091;48.758;9.150;2022-12-18T06:52:43;36.55;;;16.77;;
45354;SDS011;31091;48.758;9.150;2022-12-18T06:55:28;34.35;;;15.43;;
45354;SDS011;31091;48.758;9.150;2022-12-18T06:58:14;33.22;;;14.85;;
45354;SDS011;31091;48.758;9.150;2022-12-18T07:01:03;34.03;;;14.43;;
45354;SDS011;31091;48.758;9.150;2022-12-18T07:03:52;31.05;;;16.17;;
45354;SDS011;31091;48.758;9.150;2022-12-18T07:06:38;36.60;;;16.00;;
45354;SDS011;31091;48.758;9.150;2022-12-18T07:09:24;32.67;;;16.55;;
45354;SDS011;31091;48.758;9.150;2022-12-18T07:12:09;38.42;;;19.13;;
45354;SDS011;31091;48.758;9.150;2022-12-18T07:14:54;38.00;;;17.60;;
45354;SDS011;31091;48.758;9.150;2022-12-18T07:17:39;35.50;;;16.10;;
45354;SDS011;31091;48.758;9.150;2022-12-18T07:20:25;30.55;;;14.35;;
45354;SDS011;31091;48.758;9.150;2022-12-18T07:23:10;39.40;;;18.65;;
45354;SDS011;31091;48.758;9.150;2022-12-18T07:25:55;35.63;;;16.17;;
45354;SDS011;31091;48.758;9.150;2022-12-18T07:28:40;38.13;;;16.60;;
45354;SDS011;31091;48.758;9.150;2022-12-18T07:31:26;32.90;;;14.85;;
45354;SDS011;31091;48.758;9.150;2022-12-18T07:34:12;30.95;;;15.85;;
45354;SDS011;31091;48.758;9.150;2022-12-18T07:36:57;33.45;;;15.48;;
45354;SDS011;31091;48.758;9.150;2022-12-18T07:39:43;43.78;;;18.15;;
45354;SDS011;31091;48.758;9.150;2022-12-18T07:42:28;36.72;;;16.00;;
45354;SDS011;31091;48.758;9.150;2022-12-18T07:45:16;37.78;;;16.85;;
45354;SDS011;31091;48.758;9.150;2022-12-18T07:48:01;31.55;;;16.05;;
45354;SDS011;31091;48.758;9.150;2022-12-18T07:50:47;37.97;;;16.25;;
45354;SDS011;31091;48.758;9.150;2022-12-18T07:53:33;39.63;;;18.33;;
45354;SDS011;31091;48.758;9.150;2022-12-18T07:56:18;40.47;;;18.15;;
45354;SDS011;31091;48.758;9.150;2022-12-18T07:59:04;33.72;;;15.57;;
45354;SDS011;31091;48.758;9.150;2022-12-18T08:01:49;39.47;;;16.45;;
45354;SDS011;31091;48.758;9.150;2022-12-18T08:04:34;42.47;;;16.92;;
45354;SDS011;31091;48.758;9.150;2022-12-18T08:07:19;37.58;;;18.40;;
45354;SDS011;31091;48.758;9.150;2022-12-18T08:10:05;29.42;;;14.48;;
45354;SDS011;31091;48.758;9.150;2022-12-18T08:12:50;34.28;;;17.58;;
45354;SDS011;31091;48.758;9.150;2022-12-18T08:15:36;34.08;;;15.05;;
45354;SDS011;31091;48.758;9.150;2022-12-18T08:18:21;44.42;;;20.67;;
45354;SDS011;31091;48.758;9.150;2022-12-18T08:21:10;37.65;;;16.75;;
45354;SDS011;31091;48.758;9.150;2022-12-18T08:23:57;37.03;;;17.20;;
45354;SDS011;31091;48.758;9.150;2022-12-18T08:26:42;35.70;;;16.35;;
45354;SDS011;31091;48.758;9.150;2022-12-18T08:29:27;39.65;;;16.85;;
45354;SDS011;31091;48.758;9.150;2022-12-18T08:32:13;39.25;;;17.80;;
45354;SDS011;31091;48.758;9.150;2022-12-18T08:34:58;34.78;;;17.45;;
45354;SDS011;31091;48.758;9.150;2022-12-18T08:37:43;39.97;;;17.48;;
45354;SDS011;31091;48.758;9.150;2022-12-18T08:40:29;33.10;;;16.33;;
45354;SDS011;31091;48.758;9.150;2022-12-18T08:43:14;41.00;;;19.25;;
45354;SDS011;31091;48.758;9.150;2022-12-18T08:46:18;32.90;;;17.38;;
45354;SDS011;31091;48.758;9.150;2022-12-18T08:49:04;40.25;;;18.23;;
45354;SDS011;31091;48.758;9.150;2022-12-18T08:51:53;40.55;;;17.85;;
45354;SDS011;31091;48.758;9.150;2022-12-18T08:54:38;28.90;;;14.52;;
45354;SDS011;31091;48.758;9.150;2022-12-18T08:57:24;39.53;;;17.73;;
45354;SDS011;31091;48.758;9.150;2022-12-18T09:00:09;40.20;;;17.60;;
45354;SDS011;31091;48.758;9.150;2022-12-18T09:02:54;36.15;;;17.13;;
45354;SDS011;31091;48.758;9.150;2022-12-18T09:05:40;33.00;;;16.50;;
45354;SDS011;31091;48.758;9.150;2022-12-18T09:08:25;35.17;;;16.73;;
45354;SDS011;31091;48.758;9.150;2022-12-18T09:11:29;36.47;;;17.42;;
45354;SDS011;31091;48.758;9.150;2022-12-18T09:14:14;36.45;;;17.38;;
45354;SDS011;31091;48.758;9.150;2022-12-18T09:16:59;45.50;;;23.02;;
45354;SDS011;31091;48.758;9.150;2022-12-18T09:19:45;41.15;;;19.42;;
45354;SDS011;31091;48.758;9.150;2022-12-18T09:22:30;39.50;;;17.10;;
45354;SDS011;31091;48.758;9.150;2022-12-18T09:25:15;38.70;;;18.77;;
45354;SDS011;31091;48.758;9.150;2022-12-18T09:28:19;38.38;;;17.63;;
45354;SDS011;31091;48.758;9.150;2022-12-18T09:31:05;41.90;;;19.02;;
45354;SDS011;31091;48.758;9.150;2022-12-18T09:33:51;42.85;;;16.95;;
45354;SDS011;31091;48.758;9.150;2022-12-18T09:36:37;34.22;;;15.63;;
45354;SDS011;31091;48.758;9.150;2022-12-18T09:39:22;35.25;;;16.77;;
45354;SDS011;31091;48.758;9.150;2022-12-18T09:42:09;35.67;;;15.77;;
45354;SDS011;31091;48.758;9.150;2022-12-18T09:44:59;38.72;;;16.70;;
45354;SDS011;31091;48.758;9.150;2022-12-18T09:47:45;33.85;;;15.82;;
45354;SDS011;31091;48.758;9.150;2022-12-18T09:50:33;32.65;;;16.67;;
45354;SDS011;31091;48.758;9.150;2022-12-18T09:53:20;37.38;;;18.55;;
45354;SDS011;31091;48.758;9.150;2022-12-18T09:56:10;39.67;;;18.67;;
45354;SDS011;31091;48.758;9.150;2022-12-18T09:58:58;39.70;;;17.83;;
45354;SDS011;31091;48.758;9.150;2022-12-18T10:01:43;33.80;;;18.38;;
45354;SDS011;31091;48.758;9.150;2022-12-18T10:04:29;35.35;;;18.52;;
45354;SDS011;31091;48.758;9.150;2022-12-18T10:07:18;42.20;;;18.38;;
45354;SDS011;31091;48.758;9.150;2022-12-18T10:10:07;36.03;;;17.63;;
45354;SDS011;31091;48.758;9.150;2022-12-18T10:15:46;40.47;;;18.45;;
45354;SDS011;31091;48.758;9.150;2022-12-18T10:24:53;37.08;;;17.15;;
45354;SDS011;31091;48.758;9.150;2022-12-18T10:27:40;39.40;;;18.38;;
45354;SDS011;31091;48.758;9.150;2022-12-18T10:30:25;33.88;;;16.58;;
45354;SDS011;31091;48.758;9.150;2022-12-18T10:33:12;41.83;;;19.48;;
45354;SDS011;31091;48.758;9.150;2022-12-18T10:35:58;37.60;;;17.25;;
45354;SDS011;31091;48.758;9.150;2022-12-18T10:38:43;42.65;;;21.65;;
45354;SDS011;31091;48.758;9.150;2022-12-18T10:41:29;43.30;;;19.77;;
45354;SDS011;31091;48.758;9.150;2022-12-18T10:47:04;46.40;;;20.38;;
45354;SDS011;31091;48.758;9.150;2022-12-18T10:49:53;36.70;;;18.17;;
45354;SDS011;31091;48.758;9.150;2022-12-18T10:52:53;36.47;;;18.33;;
45354;SDS011;31091;48.758;9.150;2022-12-18T10:55:39;37.90;;;19.60;;
45354;SDS011;31091;48.758;9.150;2022-12-18T11:01:17;41.83;;;19.40;;
45354;SDS011;31091;48.758;9.150;2022-12-18T11:04:07;45.17;;;20.23;;
45354;SDS011;31091;48.758;9.150;2022-12-18T11:07:00;37.92;;;18.20;;
45354;SDS011;31091;48.758;9.150;2022-12-18T11:09:46;36.95;;;19.33;;
45354;SDS011;31091;48.758;9.150;2022-12-18T11:12:43;40.47;;;19.38;;
45354;SDS011;31091;48.758;9.150;2022-12-18T11:15:29;40.65;;;21.65;;
45354;SDS011;31091;48.758;9.150;2022-12-18T11:18:16;40.63;;;18.48;;
45354;SDS011;31091;48.758;9.150;2022-12-18T11:23:51;40.47;;;20.23;;
45354;SDS011;31091;48.758;9.150;2022-12-18T11:26:37;45.47;;;20.77;;
45354;SDS011;31091;48.758;9.150;2022-12-18T11:29:27;49.20;;;24.88;;
45354;SDS011;31091;48.758;9.150;2022-12-18T11:35:01;45.58;;;20.58;;
45354;SDS011;31091;48.758;9.150;2022-12-18T11:37:48;41.90;;;19.58;;
45354;SDS011;31091;48.758;9.150;2022-12-18T11:40:38;42.85;;;20.15;;
45354;SDS011;31091;48.758;9.150;2022-12-18T11:43:27;37.17;;;18.90;;
45354;SDS011;31091;48.758;9.150;2022-12-18T11:46:14;42.33;;;21.52;;
45354;SDS011;31091;48.758;9.150;2022-12-18T11:49:07;34.97;;;19.15;;
45354;SDS011;31091;48.758;9.150;2022-12-18T11:51:58;41.38;;;20.45;;
45354;SDS011;31091;48.758;9.150;2022-12-18T11:54:45;40.47;;;19.70;;
45354;SDS011;31091;48.758;9.150;2022-12-18T12:00:36;42.92;;;18.90;;
45354;SDS011;31091;48.758;9.150;2022-12-18T12:03:27;40.70;;;20.45;;
45354;SDS011;31091;48.758;9.150;2022-12-18T12:06:28;38.25;;;19.13;;
45354;SDS011;31091;48.758;9.150;2022-12-18T12:10:01;40.42;;;19.70;;
45354;SDS011;31091;48.758;9.150;2022-12-18T12:21:09;47.20;;;22.05;;
45354;SDS011;31091;48.758;9.150;2022-12-18T12:24:01;38.22;;;20.15;;
45354;SDS011;31091;48.758;9.150;2022-12-18T12:35:44;44.03;;;19.83;;
45354;SDS011;31091;48.758;9.150;2022-12-18T12:38:35;40.78;;;20.08;;
45354;SDS011;31091;48.758;9.150;2022-12-18T12:41:23;40.45;;;19.10;;
45354;SDS011;31091;48.758;9.150;2022-12-18T12:44:29;38.50;;;19.00;;
45354;SDS011;31091;48.758;9.150;2022-12-18T12:47:25;43.85;;;20.88;;
45354;SDS011;31091;48.758;9.150;2022-12-18T12:50:15;39.28;;;19.52;;
45354;SDS011;31091;48.758;9.150;2022-12-18T12:53:01;37.08;;;19.88;;
45354;SDS011;31091;48.758;9.150;2022-12-18T12:55:50;37.97;;;19.98;;
45354;SDS011;31091;48.758;9.150;2022-12-18T12:58:45;36.97;;;20.23;;
45354;SDS011;31091;48.758;9.150;2022-12-18T13:01:37;46.55;;;22.27;;
45354;SDS011;31091;48.758;9.150;2022-12-18T13:04:34;39.25;;;18.90;;
45354;SDS011;31091;48.758;9.150;2022-12-18T13:13:08;36.03;;;16.73;;
45354;SDS011;31091;48.758;9.150;2022-12-18T13:16:04;37.08;;;17.80;;
45354;SDS011;31091;48.758;9.150;2022-12-18T13:18:54;36.03;;;18.10;;
45354;SDS011;31091;48.758;9.150;2022-12-18T13:21:41;38.97;;;19.73;;
45354;SDS011;31091;48.758;9.150;2022-12-18T13:24:27;36.08;;;17.13;;
45354;SDS011;31091;48.758;9.150;2022-12-18T13:36:08;42.42;;;18.27;;
45354;SDS011;31091;48.758;9.150;2022-12-18T13:44:46;31.27;;;15.90;;
45354;SDS011;31091;48.758;9.150;2022-12-18T13:47:32;35.58;;;17.40;;
45354;SDS011;31091;48.758;9.150;2022-12-18T13:50:24;38.67;;;17.20;;
45354;SDS011;31091;48.758;9.150;2022-12-18T13:53:19;35.40;;;18.90;;
45354;SDS011;31091;48.758;9.150;2022-12-18T13:56:06;37.28;;;18.52;;
45354;SDS011;31091;48.758;9.150;2022-12-18T14:01:56;35.03;;;17.35;;
45354;SDS011;31091;48.758;9.150;2022-12-18T14:04:44;49.05;;;19.35;;
45354;SDS011;31091;48.758;9.150;2022-12-18T14:07:30;40.38;;;19.17;;
45354;SDS011;31091;48.758;9.150;2022-12-18T14:10:16;37.70;;;20.65;;
45354;SDS011;31091;48.758;9.150;2022-12-18T14:13:05;39.67;;;18.65;;
45354;SDS011;31091;48.758;9.150;2022-12-18T14:15:51;34.50;;;18.08;;
45354;SDS011;31091;48.758;9.150;2022-12-18T14:18:53;40.40;;;19.98;;
45354;SDS011;31091;48.758;9.150;2022-12-18T14:21:40;38.50;;;18.48;;
45354;SDS011;31091;48.758;9.150;2022-12-18T14:24:25;39.85;;;18.45;;
45354;SDS011;31091;48.758;9.150;2022-12-18T14:27:21;37.92;;;17.52;;
45354;SDS011;31091;48.758;9.150;2022-12-18T14:30:26;37.38;;;17.50;;
45354;SDS011;31091;48.758;9.150;2022-12-18T14:36:00;38.88;;;19.73;;
45354;SDS011;31091;48.758;9.150;2022-12-18T14:38:50;35.63;;;17.85;;
45354;SDS011;31091;48.758;9.150;2022-12-18T14:41:36;38.20;;;17.52;;
45354;SDS011;31091;48.758;9.150;2022-12-18T14:44:21;36.88;;;18.15;;
45354;SDS011;31091;48.758;9.150;2022-12-18T14:47:12;39.80;;;20.15;;
45354;SDS011;31091;48.758;9.150;2022-12-18T14:49:58;43.45;;;19.50;;
45354;SDS011;31091;48.758;9.150;2022-12-18T14:52:44;36.90;;;18.73;;
45354;SDS011;31091;48.758;9.150;2022-12-18T14:55:29;38.03;;;18.73;;
45354;SDS011;31091;48.758;9.150;2022-12-18T14:58:15;37.25;;;18.20;;
45354;SDS011;31091;48.758;9.150;2022-12-18T15:01:02;44.58;;;19.88;;
45354;SDS011;31091;48.758;9.150;2022-12-18T15:03:47;41.50;;;20.00;;
45354;SDS011;31091;48.758;9.150;2022-12-18T15:06:37;35.20;;;17.85;;
45354;SDS011;31091;48.758;9.150;2022-12-18T15:12:31;42.05;;;20.33;;
45354;SDS011;31091;48.758;9.150;2022-12-18T15:18:19;40.88;;;20.27;;
45354;SDS011;31091;48.758;9.150;2022-12-18T15:21:09;47.75;;;23.38;;
45354;SDS011;31091;48.758;9.150;2022-12-18T15:23:58;41.90;;;18.92;;
45354;SDS011;31091;48.758;9.150;2022-12-18T15:26:43;47.38;;;19.65;;
45354;SDS011;31091;48.758;9.150;2022-12-18T15:29:28;47.80;;;19.92;;
45354;SDS011;31091;48.758;9.150;2022-12-18T15:32:19;41.50;;;18.13;;
45354;SDS011;31091;48.758;9.150;2022-12-18T15:37:55;45.65;;;19.75;;
45354;SDS011;31091;48.758;9.150;2022-12-18T15:40:41;40.08;;;19.88;;
45354;SDS011;31091;48.758;9.150;2022-12-18T15:43:26;40.63;;;18.95;;
45354;SDS011;31091;48.758;9.150;2022-12-18T15:46:22;45.30;;;19.95;;
45354;SDS011;31091;48.758;9.150;2022-12-18T15:49:07;40.60;;;18.65;;
45354;SDS011;31091;48.758;9.150;2022-12-18T15:51:53;41.13;;;20.60;;
45354;SDS011;31091;48.758;9.150;2022-12-18T15:54:39;39.45;;;18.55;;
45354;SDS011;31091;48.758;9.150;2022-12-18T15:57:43;42.03;;;21.70;;
45354;SDS011;31091;48.758;9.150;2022-12-18T16:00:28;45.35;;;20.25;;
45354;SDS011;31091;48.758;9.150;2022-12-18T16:03:13;41.05;;;19.85;;
45354;SDS011;31091;48.758;9.150;2022-12-18T16:05:59;42.70;;;22.65;;
45354;SDS011;31091;48.758;9.150;2022-12-18T16:08:47;44.55;;;20.35;;
45354;SDS011;31091;48.758;9.150;2022-12-18T16:11:33;43.42;;;20.83;;
45354;SDS011;31091;48.758;9.150;2022-12-18T16:14:28;44.22;;;19.75;;
45354;SDS011;31091;48.758;9.150;2022-12-18T16:17:14;36.42;;;18.80;;
45354;SDS011;31091;48.758;9.150;2022-12-18T16:19:59;41.53;;;18.58;;
45354;SDS011;31091;48.758;9.150;2022-12-18T16:22:45;42.65;;;21.27;;
45354;SDS011;31091;48.758;9.150;2022-12-18T16:25:31;38.60;;;19.15;;
45354;SDS011;31091;48.758;9.150;2022-12-18T16:28:16;39.95;;;19.90;;
45354;SDS011;31091;48.758;9.150;2022-12-18T16:31:01;49.35;;;21.40;;
45354;SDS011;31091;48.758;9.150;2022-12-18T16:33:46;45.60;;;21.20;;
45354;SDS011;31091;48.758;9.150;2022-12-18T16:36:32;47.85;;;22.05;;
45354;SDS011;31091;48.758;9.150;2022-12-18T16:39:17;42.67;;;20.83;;
45354;SDS011;31091;48.758;9.150;2022-12-18T16:42:06;49.20;;;20.90;;
45354;SDS011;31091;48.758;9.150;2022-12-18T16:44:53;44.40;;;21.85;;
45354;SDS011;31091;48.758;9.150;2022-12-18T16:47:38;48.88;;;21.60;;
45354;SDS011;31091;48.758;9.150;2022-12-18T16:50:24;51.65;;;21.15;;
45354;SDS011;31091;48.758;9.150;2022-12-18T16:53:09;49.05;;;23.40;;
45354;SDS011;31091;48.758;9.150;2022-12-18T16:55:55;50.30;;;22.00;;
45354;SDS011;31091;48.758;9.150;2022-12-18T16:58:40;44.88;;;20.67;;
45354;SDS011;31091;48.758;9.150;2022-12-18T17:01:26;47.50;;;22.50;;
45354;SDS011;31091;48.758;9.150;2022-12-18T17:04:11;45.15;;;22.05;;
45354;SDS011;31091;48.758;9.150;2022-12-18T17:06:57;44.95;;;21.67;;
45354;SDS011;31091;48.758;9.150;2022-12-18T17:09:42;45.25;;;22.15;;
45354;SDS011;31091;48.758;9.150;2022-12-18T17:12:27;44.50;;;21.40;;
45354;SDS011;31091;48.758;9.150;2022-12-18T17:15:14;47.17;;;22.52;;
45354;SDS011;31091;48.758;9.150;2022-12-18T17:17:59;41.47;;;21.70;;
45354;SDS011;31091;48.758;9.150;2022-12-18T17:20:44;39.33;;;20.90;;
45354;SDS011;31091;48.758;9.150;2022-12-18T17:23:30;47.17;;;22.58;;
45354;SDS011;31091;48.758;9.150;2022-12-18T17:26:15;53.95;;;24.20;;
45354;SDS011;31091;48.758;9.150;2022-12-18T17:29:00;46.92;;;23.15;;
45354;SDS011;31091;48.758;9.150;2022-12-18T17:31:46;43.17;;;21.30;;
45354;SDS011;31091;48.758;9.150;2022-12-18T17:34:31;47.33;;;22.85;;
45354;SDS011;31091;48.758;9.150;2022-12-18T17:37:16;42.08;;;21.60;;
45354;SDS011;31091;48.758;9.150;2022-12-18T17:40:02;51.33;;;23.17;;
45354;SDS011;31091;48.758;9.150;2022-12-18T17:42:47;49.70;;;23.83;;
45354;SDS011;31091;48.758;9.150;2022-12-18T17:45:36;43.88;;;22.20;;
45354;SDS011;31091;48.758;9.150;2022-12-18T17:48:21;49.22;;;23.40;;
45354;SDS011;31091;48.758;9.150;2022-12-18T17:51:08;43.25;;;22.48;;
45354;SDS011;31091;48.758;9.150;2022-12-18T17:53:53;46.72;;;21.77;;
45354;SDS011;31091;48.758;9.150;2022-12-18T17:56:38;44.85;;;22.40;;
45354;SDS011;31091;48.758;9.150;2022-12-18T17:59:25;41.00;;;21.52;;